sensor_id;sensor_type;location;lat;lon;timestamp;P1;durP1;ratioP1;P2;durP2;ratioP2
33858;SDS011;20156;47.486;12.074;2023-12-04T00:01:35;12.67;;;8.37;;
33858;SDS011;20156;47.486;12.074;2023-12-04T00:04:01;12.23;;;7.80;;
33858;SDS011;20156;47.486;12.074;2023-12-04T00:06:26;9.63;;;7.00;;
33858;SDS011;20156;47.486;12.074;2023-12-04T00:08:51;12.33;;;7.97;;
33858;SDS011;20156;47.486;12.074;2023-12-04T00:11:16;12.77;;;8.03;;
33858;SDS011;20156;47.486;12.074;2023-12-04T00:13:42;12.53;;;8.10;;
33858;SDS011;20156;47.486;12.074;2023-12-04T00:16:07;10.37;;;7.33;;
33858;SDS011;20156;47.486;12.074;2023-12-04T00:18:32;10.97;;;7.40;;
33858;SDS011;20156;47.486;12.074;2023-12-04T00:20:58;12.63;;;7.80;;
33858;SDS011;20156;47.486;12.074;2023-12-04T00:23:23;12.83;;;8.27;;
33858;SDS011;20156;47.486;12.074;2023-12-04T00:25:48;13.17;;;8.20;;
33858;SDS011;20156;47.486;12.074;2023-12-04T00:28:13;10.43;;;7.13;;
33858;SDS011;20156;47.486;12.074;2023-12-04T00:30:39;9.93;;;6.67;;
33858;SDS011;20156;47.486;12.074;2023-12-04T00:33:04;11.23;;;7.80;;
33858;SDS011;20156;47.486;12.074;2023-12-04T00:35:29;13.13;;;8.30;;
33858;SDS011;20156;47.486;12.074;2023-12-04T00:37:54;12.17;;;7.23;;
33858;SDS011;20156;47.486;12.074;2023-12-04T00:40:20;11.03;;;7.73;;
33858;SDS011;20156;47.486;12.074;2023-12-04T00:42:45;14.33;;;8.43;;
33858;SDS011;20156;47.486;12.074;2023-12-04T00:45:10;12.97;;;7.97;;
33858;SDS011;20156;47.486;12.074;2023-12-04T00:47:35;10.93;;;7.10;;
33858;SDS011;20156;47.486;12.074;2023-12-04T00:50:01;12.00;;;7.20;;
33858;SDS011;20156;47.486;12.074;2023-12-04T00:52:26;10.07;;;7.23;;
33858;SDS011;20156;47.486;12.074;2023-12-04T00:54:51;8.33;;;6.60;;
33858;SDS011;20156;47.486;12.074;2023-12-04T00:57:17;10.30;;;6.60;;
33858;SDS011;20156;47.486;12.074;2023-12-04T00:59:42;10.10;;;6.90;;
33858;SDS011;20156;47.486;12.074;2023-12-04T01:02:07;11.37;;;7.90;;
33858;SDS011;20156;47.486;12.074;2023-12-04T01:04:32;9.77;;;6.70;;
33858;SDS011;20156;47.486;12.074;2023-12-04T01:06:58;9.17;;;5.63;;
33858;SDS011;20156;47.486;12.074;2023-12-04T01:09:23;10.13;;;6.73;;
33858;SDS011;20156;47.486;12.074;2023-12-04T01:11:58;8.57;;;6.13;;
33858;SDS011;20156;47.486;12.074;2023-12-04T01:14:23;10.70;;;6.00;;
33858;SDS011;20156;47.486;12.074;2023-12-04T01:16:48;8.50;;;5.90;;
33858;SDS011;20156;47.486;12.074;2023-12-04T01:19:14;11.63;;;6.80;;
33858;SDS011;20156;47.486;12.074;2023-12-04T01:21:39;10.30;;;5.83;;
33858;SDS011;20156;47.486;12.074;2023-12-04T01:24:04;8.60;;;6.23;;
33858;SDS011;20156;47.486;12.074;2023-12-04T01:26:30;8.97;;;5.13;;
33858;SDS011;20156;47.486;12.074;2023-12-04T01:28:55;10.53;;;6.53;;
33858;SDS011;20156;47.486;12.074;2023-12-04T01:31:20;10.93;;;6.73;;
33858;SDS011;20156;47.486;12.074;2023-12-04T01:33:45;15.20;;;8.10;;
33858;SDS011;20156;47.486;12.074;2023-12-04T01:36:11;9.70;;;6.50;;
33858;SDS011;20156;47.486;12.074;2023-12-04T01:38:37;14.17;;;6.87;;
33858;SDS011;20156;47.486;12.074;2023-12-04T01:41:02;12.00;;;6.57;;
33858;SDS011;20156;47.486;12.074;2023-12-04T01:43:28;11.33;;;6.90;;
33858;SDS011;20156;47.486;12.074;2023-12-04T01:45:53;10.60;;;6.23;;
33858;SDS011;20156;47.486;12.074;2023-12-04T01:48:19;16.83;;;8.10;;
33858;SDS011;20156;47.486;12.074;2023-12-04T01:50:44;11.23;;;6.90;;
33858;SDS011;20156;47.486;12.074;2023-12-04T01:53:09;13.73;;;7.87;;
33858;SDS011;20156;47.486;12.074;2023-12-04T01:55:35;11.73;;;6.80;;
33858;SDS011;20156;47.486;12.074;2023-12-04T01:58:01;10.13;;;6.20;;
33858;SDS011;20156;47.486;12.074;2023-12-04T02:00:28;8.90;;;5.93;;
33858;SDS011;20156;47.486;12.074;2023-12-04T02:02:53;8.10;;;5.47;;
33858;SDS011;20156;47.486;12.074;2023-12-04T02:05:19;8.40;;;5.40;;
33858;SDS011;20156;47.486;12.074;2023-12-04T02:07:44;7.90;;;5.00;;
33858;SDS011;20156;47.486;12.074;2023-12-04T02:10:09;6.40;;;5.13;;
33858;SDS011;20156;47.486;12.074;2023-12-04T02:12:35;8.27;;;5.20;;
33858;SDS011;20156;47.486;12.074;2023-12-04T02:15:00;9.17;;;4.97;;
33858;SDS011;20156;47.486;12.074;2023-12-04T02:17:26;8.83;;;5.40;;
33858;SDS011;20156;47.486;12.074;2023-12-04T02:19:51;6.27;;;4.00;;
33858;SDS011;20156;47.486;12.074;2023-12-04T02:22:18;5.53;;;3.50;;
33858;SDS011;20156;47.486;12.074;2023-12-04T02:24:43;5.17;;;3.80;;
33858;SDS011;20156;47.486;12.074;2023-12-04T02:27:10;5.13;;;3.90;;
33858;SDS011;20156;47.486;12.074;2023-12-04T02:29:37;7.23;;;4.10;;
33858;SDS011;20156;47.486;12.074;2023-12-04T02:32:04;3.80;;;3.07;;
33858;SDS011;20156;47.486;12.074;2023-12-04T02:34:30;3.93;;;3.23;;
33858;SDS011;20156;47.486;12.074;2023-12-04T02:36:57;5.40;;;3.80;;
33858;SDS011;20156;47.486;12.074;2023-12-04T02:39:23;5.80;;;3.90;;
33858;SDS011;20156;47.486;12.074;2023-12-04T02:41:48;6.37;;;3.50;;
33858;SDS011;20156;47.486;12.074;2023-12-04T02:44:13;5.50;;;3.87;;
33858;SDS011;20156;47.486;12.074;2023-12-04T02:46:39;4.60;;;3.67;;
33858;SDS011;20156;47.486;12.074;2023-12-04T02:49:04;5.83;;;3.50;;
33858;SDS011;20156;47.486;12.074;2023-12-04T02:51:29;5.07;;;2.90;;
33858;SDS011;20156;47.486;12.074;2023-12-04T02:53:54;5.37;;;3.73;;
33858;SDS011;20156;47.486;12.074;2023-12-04T02:56:20;5.00;;;3.03;;
33858;SDS011;20156;47.486;12.074;2023-12-04T02:58:45;6.77;;;3.60;;
33858;SDS011;20156;47.486;12.074;2023-12-04T03:01:10;5.97;;;3.87;;
33858;SDS011;20156;47.486;12.074;2023-12-04T03:03:35;4.90;;;3.37;;
33858;SDS011;20156;47.486;12.074;2023-12-04T03:06:01;5.43;;;3.90;;
33858;SDS011;20156;47.486;12.074;2023-12-04T03:08:26;5.33;;;3.63;;
33858;SDS011;20156;47.486;12.074;2023-12-04T03:10:51;4.30;;;3.27;;
33858;SDS011;20156;47.486;12.074;2023-12-04T03:13:16;5.07;;;3.40;;
33858;SDS011;20156;47.486;12.074;2023-12-04T03:15:42;5.00;;;3.50;;
33858;SDS011;20156;47.486;12.074;2023-12-04T03:18:07;5.70;;;3.43;;
33858;SDS011;20156;47.486;12.074;2023-12-04T03:20:32;4.57;;;3.40;;
33858;SDS011;20156;47.486;12.074;2023-12-04T03:22:57;6.23;;;4.10;;
33858;SDS011;20156;47.486;12.074;2023-12-04T03:25:23;5.93;;;3.53;;
33858;SDS011;20156;47.486;12.074;2023-12-04T03:27:48;4.43;;;3.40;;
33858;SDS011;20156;47.486;12.074;2023-12-04T03:30:13;3.97;;;3.23;;
33858;SDS011;20156;47.486;12.074;2023-12-04T03:32:38;4.47;;;3.70;;
33858;SDS011;20156;47.486;12.074;2023-12-04T03:35:04;5.67;;;3.73;;
33858;SDS011;20156;47.486;12.074;2023-12-04T03:37:29;5.13;;;3.57;;
33858;SDS011;20156;47.486;12.074;2023-12-04T03:39:54;5.10;;;3.60;;
33858;SDS011;20156;47.486;12.074;2023-12-04T03:42:19;4.90;;;3.47;;
33858;SDS011;20156;47.486;12.074;2023-12-04T03:44:45;5.83;;;3.87;;
33858;SDS011;20156;47.486;12.074;2023-12-04T03:47:10;5.37;;;3.87;;
33858;SDS011;20156;47.486;12.074;2023-12-04T03:49:35;6.03;;;3.53;;
33858;SDS011;20156;47.486;12.074;2023-12-04T03:52:00;4.87;;;3.53;;
33858;SDS011;20156;47.486;12.074;2023-12-04T03:54:25;5.17;;;3.70;;
33858;SDS011;20156;47.486;12.074;2023-12-04T03:56:51;5.13;;;3.60;;
33858;SDS011;20156;47.486;12.074;2023-12-04T03:59:16;4.77;;;3.37;;
33858;SDS011;20156;47.486;12.074;2023-12-04T04:01:41;5.93;;;4.00;;
33858;SDS011;20156;47.486;12.074;2023-12-04T04:04:06;5.50;;;3.60;;
33858;SDS011;20156;47.486;12.074;2023-12-04T04:06:32;4.97;;;3.37;;
33858;SDS011;20156;47.486;12.074;2023-12-04T04:08:57;8.00;;;3.50;;
33858;SDS011;20156;47.486;12.074;2023-12-04T04:11:22;4.00;;;2.87;;
33858;SDS011;20156;47.486;12.074;2023-12-04T04:13:48;4.90;;;3.77;;
33858;SDS011;20156;47.486;12.074;2023-12-04T04:16:16;5.40;;;4.10;;
33858;SDS011;20156;47.486;12.074;2023-12-04T04:18:41;6.00;;;3.43;;
33858;SDS011;20156;47.486;12.074;2023-12-04T04:21:08;4.63;;;3.50;;
33858;SDS011;20156;47.486;12.074;2023-12-04T04:23:33;4.77;;;3.37;;
33858;SDS011;20156;47.486;12.074;2023-12-04T04:25:58;4.63;;;3.70;;
33858;SDS011;20156;47.486;12.074;2023-12-04T04:28:23;5.00;;;3.83;;
33858;SDS011;20156;47.486;12.074;2023-12-04T04:30:49;5.93;;;4.07;;
33858;SDS011;20156;47.486;12.074;2023-12-04T04:33:14;6.77;;;3.83;;
33858;SDS011;20156;47.486;12.074;2023-12-04T04:35:39;4.70;;;3.33;;
33858;SDS011;20156;47.486;12.074;2023-12-04T04:38:04;4.83;;;3.60;;
33858;SDS011;20156;47.486;12.074;2023-12-04T04:40:30;7.83;;;3.70;;
33858;SDS011;20156;47.486;12.074;2023-12-04T04:42:55;7.03;;;4.07;;
33858;SDS011;20156;47.486;12.074;2023-12-04T04:45:20;5.70;;;3.80;;
33858;SDS011;20156;47.486;12.074;2023-12-04T04:47:45;6.60;;;3.77;;
33858;SDS011;20156;47.486;12.074;2023-12-04T04:50:11;8.00;;;4.30;;
33858;SDS011;20156;47.486;12.074;2023-12-04T04:52:39;5.33;;;3.27;;
33858;SDS011;20156;47.486;12.074;2023-12-04T04:55:04;6.63;;;4.17;;
33858;SDS011;20156;47.486;12.074;2023-12-04T04:57:30;6.83;;;4.53;;
33858;SDS011;20156;47.486;12.074;2023-12-04T04:59:55;4.67;;;3.37;;
33858;SDS011;20156;47.486;12.074;2023-12-04T05:02:20;9.13;;;4.20;;
33858;SDS011;20156;47.486;12.074;2023-12-04T05:04:45;6.80;;;4.43;;
33858;SDS011;20156;47.486;12.074;2023-12-04T05:07:11;7.93;;;4.77;;
33858;SDS011;20156;47.486;12.074;2023-12-04T05:09:36;6.97;;;4.67;;
33858;SDS011;20156;47.486;12.074;2023-12-04T05:12:01;8.47;;;5.23;;
33858;SDS011;20156;47.486;12.074;2023-12-04T05:14:26;7.63;;;4.90;;
33858;SDS011;20156;47.486;12.074;2023-12-04T05:16:52;5.97;;;4.63;;
33858;SDS011;20156;47.486;12.074;2023-12-04T05:19:17;9.30;;;5.27;;
33858;SDS011;20156;47.486;12.074;2023-12-04T05:21:42;7.73;;;5.23;;
33858;SDS011;20156;47.486;12.074;2023-12-04T05:24:08;6.37;;;3.90;;
33858;SDS011;20156;47.486;12.074;2023-12-04T05:26:33;6.80;;;5.27;;
33858;SDS011;20156;47.486;12.074;2023-12-04T05:28:58;8.77;;;4.97;;
33858;SDS011;20156;47.486;12.074;2023-12-04T05:31:24;8.33;;;5.27;;
33858;SDS011;20156;47.486;12.074;2023-12-04T05:33:49;7.83;;;4.93;;
33858;SDS011;20156;47.486;12.074;2023-12-04T05:36:14;8.60;;;4.67;;
33858;SDS011;20156;47.486;12.074;2023-12-04T05:38:39;9.10;;;6.17;;
33858;SDS011;20156;47.486;12.074;2023-12-04T05:41:05;11.50;;;7.70;;
33858;SDS011;20156;47.486;12.074;2023-12-04T05:43:30;10.57;;;6.80;;
33858;SDS011;20156;47.486;12.074;2023-12-04T05:45:55;7.33;;;5.37;;
33858;SDS011;20156;47.486;12.074;2023-12-04T05:48:20;10.43;;;6.97;;
33858;SDS011;20156;47.486;12.074;2023-12-04T05:50:46;9.07;;;5.90;;
33858;SDS011;20156;47.486;12.074;2023-12-04T05:53:11;11.80;;;7.53;;
33858;SDS011;20156;47.486;12.074;2023-12-04T05:55:36;15.60;;;11.17;;
33858;SDS011;20156;47.486;12.074;2023-12-04T05:58:02;14.33;;;9.13;;
33858;SDS011;20156;47.486;12.074;2023-12-04T06:00:27;10.07;;;6.60;;
33858;SDS011;20156;47.486;12.074;2023-12-04T06:02:52;11.27;;;8.47;;
33858;SDS011;20156;47.486;12.074;2023-12-04T06:05:18;13.20;;;9.30;;
33858;SDS011;20156;47.486;12.074;2023-12-04T06:07:43;12.00;;;7.50;;
33858;SDS011;20156;47.486;12.074;2023-12-04T06:10:08;11.70;;;7.60;;
33858;SDS011;20156;47.486;12.074;2023-12-04T06:12:34;10.20;;;6.63;;
33858;SDS011;20156;47.486;12.074;2023-12-04T06:14:59;7.83;;;6.20;;
33858;SDS011;20156;47.486;12.074;2023-12-04T06:17:25;11.20;;;6.93;;
33858;SDS011;20156;47.486;12.074;2023-12-04T06:19:50;11.33;;;8.27;;
33858;SDS011;20156;47.486;12.074;2023-12-04T06:22:15;8.83;;;6.53;;
33858;SDS011;20156;47.486;12.074;2023-12-04T06:24:43;9.63;;;6.60;;
33858;SDS011;20156;47.486;12.074;2023-12-04T06:27:09;9.37;;;7.10;;
33858;SDS011;20156;47.486;12.074;2023-12-04T06:29:37;11.87;;;6.00;;
33858;SDS011;20156;47.486;12.074;2023-12-04T06:32:03;7.80;;;5.73;;
33858;SDS011;20156;47.486;12.074;2023-12-04T06:34:29;9.47;;;6.60;;
33858;SDS011;20156;47.486;12.074;2023-12-04T06:36:54;9.60;;;6.20;;
33858;SDS011;20156;47.486;12.074;2023-12-04T06:39:20;7.67;;;6.37;;
33858;SDS011;20156;47.486;12.074;2023-12-04T06:41:45;9.47;;;6.07;;
33858;SDS011;20156;47.486;12.074;2023-12-04T06:44:13;7.97;;;6.10;;
33858;SDS011;20156;47.486;12.074;2023-12-04T06:46:38;8.00;;;6.20;;
33858;SDS011;20156;47.486;12.074;2023-12-04T06:49:04;9.17;;;6.30;;
33858;SDS011;20156;47.486;12.074;2023-12-04T06:51:31;8.53;;;6.70;;
33858;SDS011;20156;47.486;12.074;2023-12-04T06:53:56;10.00;;;6.10;;
33858;SDS011;20156;47.486;12.074;2023-12-04T06:56:22;14.33;;;7.63;;
33858;SDS011;20156;47.486;12.074;2023-12-04T06:58:47;13.40;;;7.90;;
33858;SDS011;20156;47.486;12.074;2023-12-04T07:01:12;9.83;;;6.33;;
33858;SDS011;20156;47.486;12.074;2023-12-04T07:03:37;12.47;;;7.57;;
33858;SDS011;20156;47.486;12.074;2023-12-04T07:06:03;21.73;;;10.83;;
33858;SDS011;20156;47.486;12.074;2023-12-04T07:08:28;13.77;;;8.07;;
33858;SDS011;20156;47.486;12.074;2023-12-04T07:10:54;13.00;;;6.97;;
33858;SDS011;20156;47.486;12.074;2023-12-04T07:13:19;10.40;;;5.87;;
33858;SDS011;20156;47.486;12.074;2023-12-04T07:15:44;12.70;;;7.60;;
33858;SDS011;20156;47.486;12.074;2023-12-04T07:18:10;11.57;;;7.20;;
33858;SDS011;20156;47.486;12.074;2023-12-04T07:20:35;8.93;;;6.20;;
33858;SDS011;20156;47.486;12.074;2023-12-04T07:23:00;13.47;;;5.77;;
33858;SDS011;20156;47.486;12.074;2023-12-04T07:25:25;10.23;;;6.03;;
33858;SDS011;20156;47.486;12.074;2023-12-04T07:27:51;13.03;;;6.33;;
33858;SDS011;20156;47.486;12.074;2023-12-04T07:30:16;12.27;;;6.53;;
33858;SDS011;20156;47.486;12.074;2023-12-04T07:32:42;11.40;;;7.27;;
33858;SDS011;20156;47.486;12.074;2023-12-04T07:35:07;20.13;;;11.20;;
33858;SDS011;20156;47.486;12.074;2023-12-04T07:37:32;22.80;;;12.40;;
33858;SDS011;20156;47.486;12.074;2023-12-04T07:39:58;28.97;;;14.97;;
33858;SDS011;20156;47.486;12.074;2023-12-04T07:42:23;27.10;;;13.83;;
33858;SDS011;20156;47.486;12.074;2023-12-04T07:44:49;30.70;;;15.10;;
33858;SDS011;20156;47.486;12.074;2023-12-04T07:47:14;26.97;;;14.97;;
33858;SDS011;20156;47.486;12.074;2023-12-04T07:49:40;24.33;;;13.53;;
33858;SDS011;20156;47.486;12.074;2023-12-04T07:52:06;27.17;;;16.47;;
33858;SDS011;20156;47.486;12.074;2023-12-04T07:54:31;22.10;;;11.27;;
33858;SDS011;20156;47.486;12.074;2023-12-04T07:56:57;38.73;;;19.07;;
33858;SDS011;20156;47.486;12.074;2023-12-04T07:59:22;32.00;;;16.63;;
33858;SDS011;20156;47.486;12.074;2023-12-04T08:01:48;31.20;;;15.27;;
33858;SDS011;20156;47.486;12.074;2023-12-04T08:04:13;23.43;;;13.67;;
33858;SDS011;20156;47.486;12.074;2023-12-04T08:06:38;22.87;;;13.90;;
33858;SDS011;20156;47.486;12.074;2023-12-04T08:09:03;25.50;;;13.77;;
33858;SDS011;20156;47.486;12.074;2023-12-04T08:11:34;17.97;;;10.33;;
33858;SDS011;20156;47.486;12.074;2023-12-04T08:13:59;16.53;;;10.50;;
33858;SDS011;20156;47.486;12.074;2023-12-04T08:16:24;19.33;;;11.00;;
33858;SDS011;20156;47.486;12.074;2023-12-04T08:18:50;18.70;;;11.37;;
33858;SDS011;20156;47.486;12.074;2023-12-04T08:21:15;16.13;;;10.57;;
33858;SDS011;20156;47.486;12.074;2023-12-04T08:23:40;16.97;;;10.83;;
33858;SDS011;20156;47.486;12.074;2023-12-04T08:26:05;16.83;;;10.47;;
33858;SDS011;20156;47.486;12.074;2023-12-04T08:28:31;23.07;;;14.03;;
33858;SDS011;20156;47.486;12.074;2023-12-04T08:30:56;24.00;;;14.50;;
33858;SDS011;20156;47.486;12.074;2023-12-04T08:33:21;22.80;;;14.90;;
33858;SDS011;20156;47.486;12.074;2023-12-04T08:35:46;22.70;;;15.10;;
33858;SDS011;20156;47.486;12.074;2023-12-04T08:38:12;19.87;;;12.40;;
33858;SDS011;20156;47.486;12.074;2023-12-04T08:40:37;21.17;;;12.80;;
33858;SDS011;20156;47.486;12.074;2023-12-04T08:43:03;18.90;;;11.70;;
33858;SDS011;20156;47.486;12.074;2023-12-04T08:45:29;17.97;;;11.37;;
33858;SDS011;20156;47.486;12.074;2023-12-04T08:47:54;23.57;;;15.20;;
33858;SDS011;20156;47.486;12.074;2023-12-04T08:50:20;23.57;;;14.37;;
33858;SDS011;20156;47.486;12.074;2023-12-04T08:52:45;19.10;;;12.70;;
33858;SDS011;20156;47.486;12.074;2023-12-04T08:55:10;25.43;;;16.23;;
33858;SDS011;20156;47.486;12.074;2023-12-04T08:57:36;21.47;;;14.67;;
33858;SDS011;20156;47.486;12.074;2023-12-04T09:00:02;22.33;;;15.93;;
33858;SDS011;20156;47.486;12.074;2023-12-04T09:02:28;18.43;;;12.17;;
33858;SDS011;20156;47.486;12.074;2023-12-04T09:04:53;18.33;;;11.43;;
33858;SDS011;20156;47.486;12.074;2023-12-04T09:07:19;15.77;;;11.13;;
33858;SDS011;20156;47.486;12.074;2023-12-04T09:09:44;16.93;;;11.10;;
33858;SDS011;20156;47.486;12.074;2023-12-04T09:12:11;12.97;;;10.33;;
33858;SDS011;20156;47.486;12.074;2023-12-04T09:14:36;17.80;;;12.10;;
33858;SDS011;20156;47.486;12.074;2023-12-04T09:17:02;16.63;;;12.27;;
33858;SDS011;20156;47.486;12.074;2023-12-04T09:19:28;17.87;;;12.40;;
33858;SDS011;20156;47.486;12.074;2023-12-04T09:21:54;17.77;;;12.00;;
33858;SDS011;20156;47.486;12.074;2023-12-04T09:24:19;18.63;;;12.33;;
33858;SDS011;20156;47.486;12.074;2023-12-04T09:26:44;16.70;;;11.80;;
33858;SDS011;20156;47.486;12.074;2023-12-04T09:29:11;17.83;;;11.13;;
33858;SDS011;20156;47.486;12.074;2023-12-04T09:31:36;22.17;;;13.77;;
33858;SDS011;20156;47.486;12.074;2023-12-04T09:34:01;23.53;;;14.07;;
33858;SDS011;20156;47.486;12.074;2023-12-04T09:36:26;23.00;;;13.43;;
33858;SDS011;20156;47.486;12.074;2023-12-04T09:38:52;20.53;;;13.20;;
33858;SDS011;20156;47.486;12.074;2023-12-04T09:41:17;23.97;;;16.03;;
33858;SDS011;20156;47.486;12.074;2023-12-04T09:43:43;27.03;;;17.30;;
33858;SDS011;20156;47.486;12.074;2023-12-04T09:46:09;19.00;;;13.63;;
33858;SDS011;20156;47.486;12.074;2023-12-04T09:48:35;16.30;;;11.70;;
33858;SDS011;20156;47.486;12.074;2023-12-04T09:51:01;18.00;;;12.27;;
33858;SDS011;20156;47.486;12.074;2023-12-04T09:53:27;20.83;;;13.20;;
33858;SDS011;20156;47.486;12.074;2023-12-04T09:55:55;20.47;;;12.37;;
33858;SDS011;20156;47.486;12.074;2023-12-04T09:58:22;21.00;;;13.43;;
33858;SDS011;20156;47.486;12.074;2023-12-04T10:00:50;20.37;;;12.87;;
33858;SDS011;20156;47.486;12.074;2023-12-04T10:03:15;18.73;;;13.60;;
33858;SDS011;20156;47.486;12.074;2023-12-04T10:05:42;20.90;;;11.53;;
33858;SDS011;20156;47.486;12.074;2023-12-04T10:08:08;16.53;;;12.47;;
33858;SDS011;20156;47.486;12.074;2023-12-04T10:10:33;19.87;;;13.57;;
33858;SDS011;20156;47.486;12.074;2023-12-04T10:12:59;25.30;;;12.50;;
33858;SDS011;20156;47.486;12.074;2023-12-04T10:15:24;16.67;;;11.63;;
33858;SDS011;20156;47.486;12.074;2023-12-04T10:17:50;20.90;;;15.60;;
33858;SDS011;20156;47.486;12.074;2023-12-04T10:20:16;27.70;;;21.80;;
33858;SDS011;20156;47.486;12.074;2023-12-04T10:22:52;23.40;;;16.90;;
33858;SDS011;20156;47.486;12.074;2023-12-04T10:25:20;20.87;;;14.50;;
33858;SDS011;20156;47.486;12.074;2023-12-04T10:27:45;42.20;;;25.27;;
33858;SDS011;20156;47.486;12.074;2023-12-04T10:30:32;21.77;;;14.90;;
33858;SDS011;20156;47.486;12.074;2023-12-04T10:32:57;26.60;;;17.07;;
33858;SDS011;20156;47.486;12.074;2023-12-04T10:35:25;21.37;;;14.10;;
33858;SDS011;20156;47.486;12.074;2023-12-04T10:37:54;20.40;;;13.13;;
33858;SDS011;20156;47.486;12.074;2023-12-04T10:40:23;22.73;;;13.70;;
33858;SDS011;20156;47.486;12.074;2023-12-04T10:42:48;17.23;;;13.17;;
33858;SDS011;20156;47.486;12.074;2023-12-04T10:45:13;20.10;;;13.13;;
33858;SDS011;20156;47.486;12.074;2023-12-04T10:47:38;20.30;;;13.60;;
33858;SDS011;20156;47.486;12.074;2023-12-04T10:50:04;19.97;;;13.63;;
33858;SDS011;20156;47.486;12.074;2023-12-04T10:52:30;20.13;;;13.33;;
33858;SDS011;20156;47.486;12.074;2023-12-04T10:54:56;19.47;;;13.57;;
33858;SDS011;20156;47.486;12.074;2023-12-04T10:57:26;16.83;;;10.97;;
33858;SDS011;20156;47.486;12.074;2023-12-04T10:59:57;18.23;;;12.23;;
33858;SDS011;20156;47.486;12.074;2023-12-04T11:02:25;20.43;;;13.00;;
33858;SDS011;20156;47.486;12.074;2023-12-04T11:04:51;19.00;;;12.87;;
33858;SDS011;20156;47.486;12.074;2023-12-04T11:07:19;30.90;;;18.87;;
33858;SDS011;20156;47.486;12.074;2023-12-04T11:09:45;21.57;;;13.80;;
33858;SDS011;20156;47.486;12.074;2023-12-04T11:12:11;18.20;;;14.50;;
33858;SDS011;20156;47.486;12.074;2023-12-04T11:14:42;40.30;;;32.17;;
33858;SDS011;20156;47.486;12.074;2023-12-04T11:17:08;17.37;;;11.13;;
33858;SDS011;20156;47.486;12.074;2023-12-04T11:19:43;13.10;;;9.13;;
33858;SDS011;20156;47.486;12.074;2023-12-04T11:22:12;26.40;;;22.57;;
33858;SDS011;20156;47.486;12.074;2023-12-04T11:24:38;18.57;;;12.73;;
33858;SDS011;20156;47.486;12.074;2023-12-04T11:27:04;21.83;;;12.70;;
33858;SDS011;20156;47.486;12.074;2023-12-04T11:29:29;27.10;;;14.87;;
33858;SDS011;20156;47.486;12.074;2023-12-04T11:31:55;25.43;;;13.90;;
33858;SDS011;20156;47.486;12.074;2023-12-04T11:34:20;16.10;;;10.27;;
33858;SDS011;20156;47.486;12.074;2023-12-04T11:36:46;21.67;;;11.37;;
33858;SDS011;20156;47.486;12.074;2023-12-04T11:39:12;18.13;;;10.93;;
33858;SDS011;20156;47.486;12.074;2023-12-04T11:41:37;22.67;;;15.87;;
33858;SDS011;20156;47.486;12.074;2023-12-04T11:44:03;59.17;;;48.67;;
33858;SDS011;20156;47.486;12.074;2023-12-04T11:46:28;15.70;;;12.07;;
33858;SDS011;20156;47.486;12.074;2023-12-04T11:48:56;11.00;;;9.43;;
33858;SDS011;20156;47.486;12.074;2023-12-04T11:54:07;11.97;;;7.40;;
33858;SDS011;20156;47.486;12.074;2023-12-04T11:56:32;12.23;;;8.40;;
33858;SDS011;20156;47.486;12.074;2023-12-04T11:59:04;12.83;;;8.70;;
33858;SDS011;20156;47.486;12.074;2023-12-04T12:01:33;10.97;;;7.97;;
33858;SDS011;20156;47.486;12.074;2023-12-04T12:03:59;12.10;;;8.83;;
33858;SDS011;20156;47.486;12.074;2023-12-04T12:06:26;12.43;;;8.53;;
33858;SDS011;20156;47.486;12.074;2023-12-04T12:08:51;9.80;;;7.47;;
33858;SDS011;20156;47.486;12.074;2023-12-04T12:11:16;17.17;;;11.40;;
33858;SDS011;20156;47.486;12.074;2023-12-04T12:13:42;21.97;;;13.50;;
33858;SDS011;20156;47.486;12.074;2023-12-04T12:16:07;11.63;;;8.70;;
33858;SDS011;20156;47.486;12.074;2023-12-04T12:18:36;13.70;;;8.53;;
33858;SDS011;20156;47.486;12.074;2023-12-04T12:21:01;12.03;;;9.07;;
33858;SDS011;20156;47.486;12.074;2023-12-04T12:23:26;20.63;;;13.47;;
33858;SDS011;20156;47.486;12.074;2023-12-04T12:25:52;18.07;;;11.63;;
33858;SDS011;20156;47.486;12.074;2023-12-04T12:28:17;19.00;;;11.03;;
33858;SDS011;20156;47.486;12.074;2023-12-04T12:30:42;15.93;;;10.40;;
33858;SDS011;20156;47.486;12.074;2023-12-04T12:33:12;15.40;;;10.50;;
33858;SDS011;20156;47.486;12.074;2023-12-04T12:35:37;17.93;;;11.50;;
33858;SDS011;20156;47.486;12.074;2023-12-04T12:38:03;18.23;;;11.70;;
33858;SDS011;20156;47.486;12.074;2023-12-04T12:40:28;22.13;;;12.63;;
33858;SDS011;20156;47.486;12.074;2023-12-04T12:43:03;23.57;;;14.67;;
33858;SDS011;20156;47.486;12.074;2023-12-04T12:45:28;18.33;;;12.17;;
33858;SDS011;20156;47.486;12.074;2023-12-04T12:47:53;14.37;;;10.20;;
33858;SDS011;20156;47.486;12.074;2023-12-04T12:50:19;14.83;;;8.40;;
33858;SDS011;20156;47.486;12.074;2023-12-04T12:52:45;16.27;;;9.63;;
33858;SDS011;20156;47.486;12.074;2023-12-04T12:55:10;14.57;;;9.60;;
33858;SDS011;20156;47.486;12.074;2023-12-04T12:57:35;11.27;;;8.20;;
33858;SDS011;20156;47.486;12.074;2023-12-04T13:00:00;10.33;;;7.00;;
33858;SDS011;20156;47.486;12.074;2023-12-04T13:02:26;10.37;;;7.57;;
33858;SDS011;20156;47.486;12.074;2023-12-04T13:04:51;14.23;;;8.83;;
33858;SDS011;20156;47.486;12.074;2023-12-04T13:07:16;14.37;;;10.07;;
33858;SDS011;20156;47.486;12.074;2023-12-04T13:09:43;11.97;;;8.67;;
33858;SDS011;20156;47.486;12.074;2023-12-04T13:12:08;18.60;;;10.90;;
33858;SDS011;20156;47.486;12.074;2023-12-04T13:14:35;13.60;;;10.07;;
33858;SDS011;20156;47.486;12.074;2023-12-04T13:17:00;6.40;;;5.23;;
33858;SDS011;20156;47.486;12.074;2023-12-04T13:19:26;7.90;;;6.23;;
33858;SDS011;20156;47.486;12.074;2023-12-04T13:21:52;11.33;;;8.13;;
33858;SDS011;20156;47.486;12.074;2023-12-04T13:24:17;11.27;;;8.63;;
33858;SDS011;20156;47.486;12.074;2023-12-04T13:26:43;21.67;;;14.40;;
33858;SDS011;20156;47.486;12.074;2023-12-04T13:29:08;26.03;;;16.30;;
33858;SDS011;20156;47.486;12.074;2023-12-04T13:31:33;28.10;;;17.33;;
33858;SDS011;20156;47.486;12.074;2023-12-04T13:33:59;27.97;;;16.60;;
33858;SDS011;20156;47.486;12.074;2023-12-04T13:36:24;27.23;;;18.27;;
33858;SDS011;20156;47.486;12.074;2023-12-04T13:38:50;28.10;;;18.73;;
33858;SDS011;20156;47.486;12.074;2023-12-04T13:41:16;23.53;;;16.23;;
33858;SDS011;20156;47.486;12.074;2023-12-04T13:43:59;19.37;;;13.53;;
33858;SDS011;20156;47.486;12.074;2023-12-04T13:46:27;16.70;;;12.33;;
33858;SDS011;20156;47.486;12.074;2023-12-04T13:48:52;19.47;;;12.97;;
33858;SDS011;20156;47.486;12.074;2023-12-04T13:51:17;17.40;;;12.07;;
33858;SDS011;20156;47.486;12.074;2023-12-04T13:53:44;19.80;;;12.40;;
33858;SDS011;20156;47.486;12.074;2023-12-04T13:56:10;19.13;;;12.77;;
33858;SDS011;20156;47.486;12.074;2023-12-04T13:58:54;17.57;;;11.03;;
33858;SDS011;20156;47.486;12.074;2023-12-04T14:01:23;18.80;;;12.10;;
33858;SDS011;20156;47.486;12.074;2023-12-04T14:03:49;16.40;;;11.00;;
33858;SDS011;20156;47.486;12.074;2023-12-04T14:06:14;16.00;;;11.10;;
33858;SDS011;20156;47.486;12.074;2023-12-04T14:08:41;13.50;;;9.97;;
33858;SDS011;20156;47.486;12.074;2023-12-04T14:11:06;16.23;;;11.57;;
33858;SDS011;20156;47.486;12.074;2023-12-04T14:13:32;15.30;;;10.60;;
33858;SDS011;20156;47.486;12.074;2023-12-04T14:15:57;13.60;;;9.77;;